Dodson, Oregon
Current Conditions -  °F | °C
As of 3:59 AM on Thursday 29 Jan 2015 (Local Time) from K4S2 Reporting Station
Overcast Overcast  
Wind Chill: 34°   Ceiling: 1000
Heat Index: 39°   Visibility: 10mi
Dew Point: 36°   Wind: 7mph
Humidity: 87%   Direction: 80°E
Pressure: 30.47"   Gusts: NA
Location:  45.6281°N, 121.806°W
Report Text: K4S2 291159Z AUTO 08006KT 10SM OVC010 04/02 A3047 RMK AO2 SLP336 T00400020
Loading
Personal Weather Stations






























Interactive Weather Map New forecast layout! Learn more

10-Day Weather Forecast

Advertisements
Track Severe Weather on mobile